Terminal Aerodrome Forecast
Issued by NWS

Home | Current Version | Previous Version | Text Only | Print | Product List | Glossary On
Versions: 1 2 3 4 5 6 7 8 9 10 11 12 13 14 15
086
FTUS43 KOAX 302320
TAFCDR
TAF
KCDR 302320Z 3100/3124 32013G24KT P6SM BKN100
     FM310300 28007KT P6SM BKN100
     FM311500 29015G25KT P6SM SCT100
     FM311900 32020G30KT P6SM SCT100=

USA.gov is the U.S. government's official web portal to all federal, state and local government web resources and services.